Key West, Florida
Current Conditions -  °F | °C
As of 4:53 AM on Friday 19 Dec 2014 (Local Time) from KEYW Reporting Station
Clear Clear  
Wind Chill: 65°   Ceiling: Unl
Heat Index: 65°   Visibility: 10mi
Dew Point: 62°   Wind: 5mph
Humidity: 90%   Direction: 20°NNE
Pressure: 30.06"   Gusts: NA
Location:  24.55°N, 81.8°W
Report Text: KEYW 190953Z AUTO 02004KT 10SM CLR 18/17 A3006 RMK AO2 SLP178 T01830167
Loading
Personal Weather Stations






























Interactive Weather Map New forecast layout! Learn more

10-Day Weather Forecast

Advertisements
Track Severe Weather on mobile